sensor_id;sensor_type;location;lat;lon;timestamp;pressure;altitude;pressure_sealevel;temperature;humidity
58090;BME280;45149;50.976;6.120;2022-12-24T00:00:57;99544.41;;;17.37;100.00
58090;BME280;45149;50.976;6.120;2022-12-24T00:03:22;99540.88;;;17.37;100.00
58090;BME280;45149;50.976;6.120;2022-12-24T00:05:47;99541.72;;;17.37;100.00
58090;BME280;45149;50.976;6.120;2022-12-24T00:08:13;99542.78;;;17.36;100.00
58090;BME280;45149;50.976;6.120;2022-12-24T00:10:38;99542.78;;;17.36;100.00
58090;BME280;45149;50.976;6.120;2022-12-24T00:13:03;99539.31;;;17.36;100.00
58090;BME280;45149;50.976;6.120;2022-12-24T00:15:28;99535.78;;;17.35;100.00
58090;BME280;45149;50.976;6.120;2022-12-24T00:17:53;99533.38;;;17.34;100.00
58090;BME280;45149;50.976;6.120;2022-12-24T00:20:19;99540.66;;;17.33;100.00
58090;BME280;45149;50.976;6.120;2022-12-24T00:22:44;99544.16;;;17.34;100.00
58090;BME280;45149;50.976;6.120;2022-12-24T00:25:09;99534.44;;;17.32;100.00
58090;BME280;45149;50.976;6.120;2022-12-24T00:27:34;99538.25;;;17.31;100.00
58090;BME280;45149;50.976;6.120;2022-12-24T00:29:59;99532.03;;;17.31;100.00
58090;BME280;45149;50.976;6.120;2022-12-24T00:32:25;99514.84;;;17.22;100.00
58090;BME280;45149;50.976;6.120;2022-12-24T00:34:50;99543.13;;;17.29;100.00
58090;BME280;45149;50.976;6.120;2022-12-24T00:37:15;99540.41;;;17.29;100.00
58090;BME280;45149;50.976;6.120;2022-12-24T00:39:40;99546.88;;;17.28;100.00
58090;BME280;45149;50.976;6.120;2022-12-24T00:42:05;99544.19;;;17.28;100.00
58090;BME280;45149;50.976;6.120;2022-12-24T00:44:30;99540.13;;;17.31;100.00
58090;BME280;45149;50.976;6.120;2022-12-24T00:46:56;99546.41;;;17.21;100.00
58090;BME280;45149;50.976;6.120;2022-12-24T00:49:21;99562.78;;;17.30;100.00
58090;BME280;45149;50.976;6.120;2022-12-24T00:51:47;99571.19;;;17.28;100.00
58090;BME280;45149;50.976;6.120;2022-12-24T00:54:12;99560.66;;;17.27;100.00
58090;BME280;45149;50.976;6.120;2022-12-24T00:56:38;99574.44;;;17.25;100.00
58090;BME280;45149;50.976;6.120;2022-12-24T00:59:03;99574.16;;;17.27;100.00
58090;BME280;45149;50.976;6.120;2022-12-24T01:01:28;99581.47;;;17.26;100.00
58090;BME280;45149;50.976;6.120;2022-12-24T01:03:54;99577.69;;;17.27;100.00
58090;BME280;45149;50.976;6.120;2022-12-24T01:06:38;99587.16;;;17.25;100.00
58090;BME280;45149;50.976;6.120;2022-12-24T01:09:03;99602.78;;;17.23;100.00
58090;BME280;45149;50.976;6.120;2022-12-24T01:11:28;99594.69;;;17.23;100.00
58090;BME280;45149;50.976;6.120;2022-12-24T01:13:54;99597.69;;;17.21;100.00
58090;BME280;45149;50.976;6.120;2022-12-24T01:16:19;99600.38;;;17.21;100.00
58090;BME280;45149;50.976;6.120;2022-12-24T01:18:44;99613.88;;;17.21;100.00
58090;BME280;45149;50.976;6.120;2022-12-24T01:21:10;99614.94;;;17.20;100.00
58090;BME280;45149;50.976;6.120;2022-12-24T01:23:35;99620.06;;;17.22;100.00
58090;BME280;45149;50.976;6.120;2022-12-24T01:26:01;99619.56;;;17.20;100.00
58090;BME280;45149;50.976;6.120;2022-12-24T01:28:26;99612.53;;;17.19;100.00
58090;BME280;45149;50.976;6.120;2022-12-24T01:30:51;99627.09;;;17.18;100.00
58090;BME280;45149;50.976;6.120;2022-12-24T01:33:17;99625.22;;;17.18;100.00
58090;BME280;45149;50.976;6.120;2022-12-24T01:35:42;99625.50;;;17.17;100.00
58090;BME280;45149;50.976;6.120;2022-12-24T01:38:08;99613.09;;;17.15;100.00
58090;BME280;45149;50.976;6.120;2022-12-24T01:40:33;99622.00;;;17.16;100.00
58090;BME280;45149;50.976;6.120;2022-12-24T01:43:18;99623.88;;;17.15;100.00
58090;BME280;45149;50.976;6.120;2022-12-24T01:51:11;99633.06;;;17.14;100.00
58090;BME280;45149;50.976;6.120;2022-12-24T01:53:39;99626.88;;;17.14;100.00
58090;BME280;45149;50.976;6.120;2022-12-24T01:56:05;99617.44;;;17.11;100.00
58090;BME280;45149;50.976;6.120;2022-12-24T01:58:32;99630.66;;;17.13;100.00
58090;BME280;45149;50.976;6.120;2022-12-24T02:00:58;99632.56;;;17.12;100.00
58090;BME280;45149;50.976;6.120;2022-12-24T02:03:24;99631.72;;;17.12;100.00
58090;BME280;45149;50.976;6.120;2022-12-24T02:05:50;99641.72;;;17.11;100.00
58090;BME280;45149;50.976;6.120;2022-12-24T02:08:16;99641.72;;;17.11;100.00
58090;BME280;45149;50.976;6.120;2022-12-24T02:10:42;99642.78;;;17.10;100.00
58090;BME280;45149;50.976;6.120;2022-12-24T02:13:07;99640.09;;;17.10;100.00
58090;BME280;45149;50.976;6.120;2022-12-24T02:15:35;99653.88;;;17.09;100.00
58090;BME280;45149;50.976;6.120;2022-12-24T02:18:06;99655.78;;;17.08;100.00
58090;BME280;45149;50.976;6.120;2022-12-24T02:23:26;99657.13;;;17.11;100.00
58090;BME280;45149;50.976;6.120;2022-12-24T02:31:01;99664.91;;;17.12;100.00
58090;BME280;45149;50.976;6.120;2022-12-24T02:33:37;99676.78;;;17.11;100.00
58090;BME280;45149;50.976;6.120;2022-12-24T02:36:09;99676.78;;;17.11;100.00
58090;BME280;45149;50.976;6.120;2022-12-24T02:38:47;99682.97;;;17.12;100.00
58090;BME280;45149;50.976;6.120;2022-12-24T02:41:19;99668.19;;;17.04;100.00
58090;BME280;45149;50.976;6.120;2022-12-24T02:43:47;99678.50;;;16.87;100.00
58090;BME280;45149;50.976;6.120;2022-12-24T02:46:18;99679.38;;;16.67;100.00
58090;BME280;45149;50.976;6.120;2022-12-24T02:48:45;99682.66;;;16.53;100.00
58090;BME280;45149;50.976;6.120;2022-12-24T02:51:11;99690.19;;;16.61;100.00
58090;BME280;45149;50.976;6.120;2022-12-24T02:53:37;99698.00;;;16.68;100.00
58090;BME280;45149;50.976;6.120;2022-12-24T02:58:41;99689.84;;;16.73;100.00
58090;BME280;45149;50.976;6.120;2022-12-24T03:06:38;99692.53;;;16.78;100.00
58090;BME280;45149;50.976;6.120;2022-12-24T03:09:07;99695.78;;;16.80;100.00
58090;BME280;45149;50.976;6.120;2022-12-24T03:11:37;99684.44;;;16.84;100.00
58090;BME280;45149;50.976;6.120;2022-12-24T03:14:04;99688.47;;;16.86;100.00
58090;BME280;45149;50.976;6.120;2022-12-24T03:16:30;99699.00;;;16.83;100.00
58090;BME280;45149;50.976;6.120;2022-12-24T03:18:55;99682.81;;;16.83;100.00
58090;BME280;45149;50.976;6.120;2022-12-24T03:21:30;99697.38;;;16.81;100.00
58090;BME280;45149;50.976;6.120;2022-12-24T03:23:56;99697.09;;;16.83;100.00
58090;BME280;45149;50.976;6.120;2022-12-24T03:26:22;99695.75;;;16.86;100.00
58090;BME280;45149;50.976;6.120;2022-12-24T03:28:48;99703.03;;;16.85;100.00
58090;BME280;45149;50.976;6.120;2022-12-24T03:31:14;99717.31;;;16.86;100.00
58090;BME280;45149;50.976;6.120;2022-12-24T03:33:39;99705.19;;;16.83;100.00
58090;BME280;45149;50.976;6.120;2022-12-24T03:36:05;99713.03;;;16.85;100.00
58090;BME280;45149;50.976;6.120;2022-12-24T03:38:31;99716.53;;;16.85;100.00
58090;BME280;45149;50.976;6.120;2022-12-24T03:40:56;99718.44;;;16.85;100.00
58090;BME280;45149;50.976;6.120;2022-12-24T03:43:22;99709.50;;;16.84;100.00
58090;BME280;45149;50.976;6.120;2022-12-24T03:45:47;99707.09;;;16.83;100.00
58090;BME280;45149;50.976;6.120;2022-12-24T03:48:12;99712.47;;;16.83;100.00
58090;BME280;45149;50.976;6.120;2022-12-24T03:50:37;99715.19;;;16.83;100.00
58090;BME280;45149;50.976;6.120;2022-12-24T03:53:03;99719.78;;;16.82;100.00
58090;BME280;45149;50.976;6.120;2022-12-24T03:55:28;99724.06;;;16.83;100.00
58090;BME280;45149;50.976;6.120;2022-12-24T03:57:53;99715.47;;;16.81;100.00
58090;BME280;45149;50.976;6.120;2022-12-24T04:00:18;99720.84;;;16.81;100.00
58090;BME280;45149;50.976;6.120;2022-12-24T04:02:44;99716.53;;;16.80;100.00
58090;BME280;45149;50.976;6.120;2022-12-24T04:05:13;99726.53;;;16.79;100.00
58090;BME280;45149;50.976;6.120;2022-12-24T04:07:39;99725.44;;;16.80;100.00
58090;BME280;45149;50.976;6.120;2022-12-24T04:10:04;99726.53;;;16.79;100.00
58090;BME280;45149;50.976;6.120;2022-12-24T04:12:29;99723.81;;;16.79;100.00
58090;BME280;45149;50.976;6.120;2022-12-24T04:14:55;99728.66;;;16.77;100.00
58090;BME280;45149;50.976;6.120;2022-12-24T04:17:20;99728.41;;;16.79;100.00
58090;BME280;45149;50.976;6.120;2022-12-24T04:19:45;99739.47;;;16.77;100.00
58090;BME280;45149;50.976;6.120;2022-12-24T04:22:10;99739.47;;;16.77;100.00
58090;BME280;45149;50.976;6.120;2022-12-24T04:24:35;99734.34;;;16.76;100.00
58090;BME280;45149;50.976;6.120;2022-12-24T04:27:00;99748.66;;;16.76;100.00
58090;BME280;45149;50.976;6.120;2022-12-24T04:29:26;99745.94;;;16.76;100.00
58090;BME280;45149;50.976;6.120;2022-12-24T04:31:51;99755.91;;;16.76;100.00
58090;BME280;45149;50.976;6.120;2022-12-24T04:34:16;99759.69;;;16.75;100.00
58090;BME280;45149;50.976;6.120;2022-12-24T04:36:41;99751.88;;;16.73;100.00
58090;BME280;45149;50.976;6.120;2022-12-24T04:39:06;99749.19;;;16.73;100.00
58090;BME280;45149;50.976;6.120;2022-12-24T04:41:31;99752.69;;;16.74;100.00
58090;BME280;45149;50.976;6.120;2022-12-24T04:43:57;99753.22;;;16.76;100.00
58090;BME280;45149;50.976;6.120;2022-12-24T04:46:24;99760.78;;;16.74;100.00
58090;BME280;45149;50.976;6.120;2022-12-24T04:48:50;99747.59;;;16.72;100.00
58090;BME280;45149;50.976;6.120;2022-12-24T04:51:16;99761.31;;;16.71;100.00
58090;BME280;45149;50.976;6.120;2022-12-24T04:53:42;99762.41;;;16.70;100.00
58090;BME280;45149;50.976;6.120;2022-12-24T04:56:17;99765.09;;;16.70;100.00
58090;BME280;45149;50.976;6.120;2022-12-24T04:58:42;99765.63;;;16.72;100.00
58090;BME280;45149;50.976;6.120;2022-12-24T05:01:11;99769.41;;;16.71;100.00
58090;BME280;45149;50.976;6.120;2022-12-24T05:03:36;99754.31;;;16.70;100.00
58090;BME280;45149;50.976;6.120;2022-12-24T05:06:06;99765.09;;;16.70;100.00
58090;BME280;45149;50.976;6.120;2022-12-24T05:08:31;99766.97;;;16.69;100.00
58090;BME280;45149;50.976;6.120;2022-12-24T05:10:57;99762.41;;;16.70;100.00
58090;BME280;45149;50.976;6.120;2022-12-24T05:13:23;99768.09;;;16.68;100.00
58090;BME280;45149;50.976;6.120;2022-12-24T05:15:48;99771.56;;;16.69;100.00
58090;BME280;45149;50.976;6.120;2022-12-24T05:18:13;99776.41;;;16.67;100.00
58090;BME280;45149;50.976;6.120;2022-12-24T05:20:39;99781.00;;;16.66;100.00
58090;BME280;45149;50.976;6.120;2022-12-24T05:23:05;99774.81;;;16.66;100.00
58090;BME280;45149;50.976;6.120;2022-12-24T05:25:48;99766.75;;;16.66;100.00
58090;BME280;45149;50.976;6.120;2022-12-24T05:28:32;99786.41;;;16.66;100.00
58090;BME280;45149;50.976;6.120;2022-12-24T05:30:57;99787.47;;;16.65;100.00
58090;BME280;45149;50.976;6.120;2022-12-24T05:33:23;99781.28;;;16.64;100.00
58090;BME280;45149;50.976;6.120;2022-12-24T05:35:49;99781.56;;;16.63;100.00
58090;BME280;45149;50.976;6.120;2022-12-24T05:38:14;99788.56;;;16.64;100.00
58090;BME280;45149;50.976;6.120;2022-12-24T05:40:40;99803.13;;;16.63;100.00
58090;BME280;45149;50.976;6.120;2022-12-24T05:43:05;99802.31;;;16.62;100.00
58090;BME280;45149;50.976;6.120;2022-12-24T05:45:30;99805.81;;;16.63;100.00
58090;BME280;45149;50.976;6.120;2022-12-24T05:47:55;99805.81;;;16.63;100.00
58090;BME280;45149;50.976;6.120;2022-12-24T05:50:20;99803.13;;;16.63;100.00
58090;BME280;45149;50.976;6.120;2022-12-24T05:52:46;99810.16;;;16.64;100.00
58090;BME280;45149;50.976;6.120;2022-12-24T05:55:11;99809.03;;;16.65;100.00
58090;BME280;45149;50.976;6.120;2022-12-24T05:57:37;99804.75;;;16.64;100.00
58090;BME280;45149;50.976;6.120;2022-12-24T06:00:03;99806.63;;;16.63;100.00
58090;BME280;45149;50.976;6.120;2022-12-24T06:02:28;99823.63;;;16.64;100.00
58090;BME280;45149;50.976;6.120;2022-12-24T06:04:53;99817.13;;;16.65;100.00
58090;BME280;45149;50.976;6.120;2022-12-24T06:07:18;99823.63;;;16.64;100.00
58090;BME280;45149;50.976;6.120;2022-12-24T06:09:44;99823.63;;;16.64;100.00
58090;BME280;45149;50.976;6.120;2022-12-24T06:12:09;99819.31;;;16.63;100.00
58090;BME280;45149;50.976;6.120;2022-12-24T06:14:34;99830.09;;;16.63;100.00
58090;BME280;45149;50.976;6.120;2022-12-24T06:16:59;99824.69;;;16.63;100.00
58090;BME280;45149;50.976;6.120;2022-12-24T06:19:24;99829.25;;;16.62;100.00
58090;BME280;45149;50.976;6.120;2022-12-24T06:21:49;99836.28;;;16.63;100.00
58090;BME280;45149;50.976;6.120;2022-12-24T06:24:15;99838.97;;;16.63;100.00
58090;BME280;45149;50.976;6.120;2022-12-24T06:26:40;99833.06;;;16.61;100.00
58090;BME280;45149;50.976;6.120;2022-12-24T06:29:05;99838.16;;;16.63;100.00
58090;BME280;45149;50.976;6.120;2022-12-24T06:31:30;99846.25;;;16.63;100.00
58090;BME280;45149;50.976;6.120;2022-12-24T06:33:56;99851.66;;;16.63;100.00
58090;BME280;45149;50.976;6.120;2022-12-24T06:36:22;99845.44;;;16.62;100.00
58090;BME280;45149;50.976;6.120;2022-12-24T06:38:48;99857.31;;;16.61;100.00
58090;BME280;45149;50.976;6.120;2022-12-24T06:41:13;99855.41;;;16.62;100.00
58090;BME280;45149;50.976;6.120;2022-12-24T06:43:42;99847.34;;;16.62;100.00
58090;BME280;45149;50.976;6.120;2022-12-24T06:46:07;99859.47;;;16.64;100.00
58090;BME280;45149;50.976;6.120;2022-12-24T06:48:32;99857.03;;;16.63;100.00
58090;BME280;45149;50.976;6.120;2022-12-24T06:50:57;99858.91;;;16.62;100.00
58090;BME280;45149;50.976;6.120;2022-12-24T06:53:22;99871.59;;;16.62;100.00
58090;BME280;45149;50.976;6.120;2022-12-24T06:55:48;99865.13;;;16.63;100.00
58090;BME280;45149;50.976;6.120;2022-12-24T06:58:13;99865.13;;;16.63;100.00
58090;BME280;45149;50.976;6.120;2022-12-24T07:00:38;99864.31;;;16.62;100.00
58090;BME280;45149;50.976;6.120;2022-12-24T07:03:03;99870.78;;;16.61;100.00
58090;BME280;45149;50.976;6.120;2022-12-24T07:05:29;99885.88;;;16.62;100.00
58090;BME280;45149;50.976;6.120;2022-12-24T07:07:54;99870.78;;;16.61;100.00
58090;BME280;45149;50.976;6.120;2022-12-24T07:10:20;99882.38;;;16.62;100.00
58090;BME280;45149;50.976;6.120;2022-12-24T07:12:46;99883.72;;;16.64;100.00
58090;BME280;45149;50.976;6.120;2022-12-24T07:15:13;99880.47;;;16.62;100.00
58090;BME280;45149;50.976;6.120;2022-12-24T07:17:39;99882.09;;;16.63;100.00
58090;BME280;45149;50.976;6.120;2022-12-24T07:20:04;99882.94;;;16.64;100.00
58090;BME280;45149;50.976;6.120;2022-12-24T07:22:30;99888.06;;;16.66;100.00
58090;BME280;45149;50.976;6.120;2022-12-24T07:24:55;99894.50;;;16.64;100.00
58090;BME280;45149;50.976;6.120;2022-12-24T07:27:20;99905.28;;;16.64;100.00
58090;BME280;45149;50.976;6.120;2022-12-24T07:29:45;99904.22;;;16.66;100.00
58090;BME280;45149;50.976;6.120;2022-12-24T07:32:11;99903.13;;;16.67;100.00
58090;BME280;45149;50.976;6.120;2022-12-24T07:34:36;99898.84;;;16.66;100.00
58090;BME280;45149;50.976;6.120;2022-12-24T07:37:03;99903.41;;;16.65;100.00
58090;BME280;45149;50.976;6.120;2022-12-24T07:39:28;99899.09;;;16.64;100.00
58090;BME280;45149;50.976;6.120;2022-12-24T07:41:53;99908.78;;;16.65;100.00
58090;BME280;45149;50.976;6.120;2022-12-24T07:44:19;99912.31;;;16.66;100.00
58090;BME280;45149;50.976;6.120;2022-12-24T07:46:44;99915.81;;;16.66;100.00
58090;BME280;45149;50.976;6.120;2022-12-24T07:49:09;99924.16;;;16.64;100.00
58090;BME280;45149;50.976;6.120;2022-12-24T07:51:35;99924.97;;;16.65;100.00
58090;BME280;45149;50.976;6.120;2022-12-24T07:54:00;99929.56;;;16.64;100.00
58090;BME280;45149;50.976;6.120;2022-12-24T07:56:25;99930.34;;;16.65;100.00
58090;BME280;45149;50.976;6.120;2022-12-24T07:58:51;99926.06;;;16.64;100.00
58090;BME280;45149;50.976;6.120;2022-12-24T08:01:16;99947.88;;;16.68;100.00
58090;BME280;45149;50.976;6.120;2022-12-24T08:03:42;99951.13;;;16.70;100.00
58090;BME280;45149;50.976;6.120;2022-12-24T08:06:08;99947.63;;;16.69;100.00
58090;BME280;45149;50.976;6.120;2022-12-24T08:08:33;99938.47;;;16.70;100.00
58090;BME280;45149;50.976;6.120;2022-12-24T08:10:59;99948.16;;;16.71;100.00
58090;BME280;45149;50.976;6.120;2022-12-24T08:13:24;99955.44;;;16.71;100.00
58090;BME280;45149;50.976;6.120;2022-12-24T08:15:49;99948.97;;;16.72;100.00
58090;BME280;45149;50.976;6.120;2022-12-24T08:18:15;99957.88;;;16.72;100.00
58090;BME280;45149;50.976;6.120;2022-12-24T08:20:40;99953.28;;;16.73;100.00
58090;BME280;45149;50.976;6.120;2022-12-24T08:23:06;99962.19;;;16.73;100.00
58090;BME280;45149;50.976;6.120;2022-12-24T08:25:31;99963.81;;;16.74;100.00
58090;BME280;45149;50.976;6.120;2022-12-24T08:27:56;99974.59;;;16.74;100.00
58090;BME280;45149;50.976;6.120;2022-12-24T08:30:21;99963.00;;;16.74;100.00
58090;BME280;45149;50.976;6.120;2022-12-24T08:32:47;99980.78;;;16.75;100.00
58090;BME280;45149;50.976;6.120;2022-12-24T08:35:12;99973.25;;;16.77;100.00
58090;BME280;45149;50.976;6.120;2022-12-24T08:37:37;99979.44;;;16.77;100.00
58090;BME280;45149;50.976;6.120;2022-12-24T08:40:02;99978.63;;;16.77;100.00
58090;BME280;45149;50.976;6.120;2022-12-24T08:42:28;99978.63;;;16.77;100.00
58090;BME280;45149;50.976;6.120;2022-12-24T08:44:53;99984.84;;;16.77;100.00
58090;BME280;45149;50.976;6.120;2022-12-24T08:47:18;99989.13;;;16.73;100.00
58090;BME280;45149;50.976;6.120;2022-12-24T08:49:43;99979.47;;;16.72;100.00
58090;BME280;45149;50.976;6.120;2022-12-24T08:52:08;99987.00;;;16.70;100.00
58090;BME280;45149;50.976;6.120;2022-12-24T08:54:34;99989.41;;;16.67;100.00
58090;BME280;45149;50.976;6.120;2022-12-24T08:56:59;99988.31;;;16.68;100.00
58090;BME280;45149;50.976;6.120;2022-12-24T08:59:24;99995.06;;;16.70;100.00
58090;BME280;45149;50.976;6.120;2022-12-24T09:01:49;100002.09;;;16.71;100.00
58090;BME280;45149;50.976;6.120;2022-12-24T09:04:14;100014.75;;;16.71;100.00
58090;BME280;45149;50.976;6.120;2022-12-24T09:06:39;100010.97;;;16.72;100.00
58090;BME280;45149;50.976;6.120;2022-12-24T09:09:05;100005.31;;;16.73;100.00
58090;BME280;45149;50.976;6.120;2022-12-24T09:11:30;100004.25;;;16.74;100.00
58090;BME280;45149;50.976;6.120;2022-12-24T09:13:57;100014.50;;;16.77;100.00
58090;BME280;45149;50.976;6.120;2022-12-24T09:16:22;100029.59;;;16.78;100.00
58090;BME280;45149;50.976;6.120;2022-12-24T09:18:48;100026.91;;;16.78;100.00
58090;BME280;45149;50.976;6.120;2022-12-24T09:21:14;100041.19;;;16.79;100.00
58090;BME280;45149;50.976;6.120;2022-12-24T09:23:39;100038.25;;;16.80;100.00
58090;BME280;45149;50.976;6.120;2022-12-24T09:26:06;100045.25;;;16.81;100.00
58090;BME280;45149;50.976;6.120;2022-12-24T09:28:31;100057.94;;;16.81;100.00
58090;BME280;45149;50.976;6.120;2022-12-24T09:30:57;100051.47;;;16.82;100.00
58090;BME280;45149;50.976;6.120;2022-12-24T09:33:23;100053.06;;;16.83;100.00
58090;BME280;45149;50.976;6.120;2022-12-24T09:35:51;100055.75;;;16.83;100.00
58090;BME280;45149;50.976;6.120;2022-12-24T09:38:17;100048.50;;;16.84;100.00
58090;BME280;45149;50.976;6.120;2022-12-24T09:40:42;100056.59;;;16.84;100.00
58090;BME280;45149;50.976;6.120;2022-12-24T09:43:13;100057.13;;;16.86;100.00
58090;BME280;45149;50.976;6.120;2022-12-24T09:45:40;100064.13;;;16.87;100.00
58090;BME280;45149;50.976;6.120;2022-12-24T09:48:10;100071.16;;;16.88;100.00
58090;BME280;45149;50.976;6.120;2022-12-24T09:50:38;100070.31;;;16.87;100.00
58090;BME280;45149;50.976;6.120;2022-12-24T09:53:11;100080.06;;;16.88;100.00
58090;BME280;45149;50.976;6.120;2022-12-24T09:55:45;100086.31;;;16.89;100.00
58090;BME280;45149;50.976;6.120;2022-12-24T09:58:19;100080.91;;;16.89;100.00
58090;BME280;45149;50.976;6.120;2022-12-24T10:00:47;100077.13;;;16.90;100.00
58090;BME280;45149;50.976;6.120;2022-12-24T10:03:13;100087.09;;;16.89;100.00
58090;BME280;45149;50.976;6.120;2022-12-24T10:05:41;100091.44;;;16.90;100.00
58090;BME280;45149;50.976;6.120;2022-12-24T10:19:07;100106.28;;;16.93;100.00
58090;BME280;45149;50.976;6.120;2022-12-24T10:21:38;100096.28;;;16.93;100.00
58090;BME280;45149;50.976;6.120;2022-12-24T10:24:09;100094.94;;;16.96;100.00
58090;BME280;45149;50.976;6.120;2022-12-24T10:26:50;100099.28;;;16.97;100.00
58090;BME280;45149;50.976;6.120;2022-12-24T10:29:18;100109.78;;;16.98;100.00
58090;BME280;45149;50.976;6.120;2022-12-24T10:32:09;100092.50;;;17.00;100.00
58090;BME280;45149;50.976;6.120;2022-12-24T10:34:45;100095.75;;;17.02;100.00
58090;BME280;45149;50.976;6.120;2022-12-24T10:37:19;100092.25;;;17.01;100.00
58090;BME280;45149;50.976;6.120;2022-12-24T10:39:46;100084.16;;;17.01;100.00
58090;BME280;45149;50.976;6.120;2022-12-24T10:42:11;100080.66;;;17.01;100.00
58090;BME280;45149;50.976;6.120;2022-12-24T10:44:38;100079.31;;;17.03;100.00
58090;BME280;45149;50.976;6.120;2022-12-24T10:47:04;100077.41;;;17.04;100.00
58090;BME280;45149;50.976;6.120;2022-12-24T10:52:32;100085.25;;;17.05;100.00
58090;BME280;45149;50.976;6.120;2022-12-24T10:55:20;100089.28;;;17.03;100.00
58090;BME280;45149;50.976;6.120;2022-12-24T10:57:55;100090.09;;;17.03;100.00
58090;BME280;45149;50.976;6.120;2022-12-24T11:00:23;100098.19;;;17.03;100.00
58090;BME280;45149;50.976;6.120;2022-12-24T11:02:49;100083.91;;;17.03;100.00
58090;BME280;45149;50.976;6.120;2022-12-24T11:05:30;100089.28;;;17.08;100.00
58090;BME280;45149;50.976;6.120;2022-12-24T11:08:03;100094.16;;;17.06;100.00
58090;BME280;45149;50.976;6.120;2022-12-24T11:10:29;100084.16;;;17.06;100.00
58090;BME280;45149;50.976;6.120;2022-12-24T11:12:55;100091.19;;;17.07;100.00
58090;BME280;45149;50.976;6.120;2022-12-24T11:15:38;100093.88;;;17.07;100.00
58090;BME280;45149;50.976;6.120;2022-12-24T11:18:04;100098.72;;;17.10;100.00
58090;BME280;45149;50.976;6.120;2022-12-24T11:20:36;100096.56;;;17.07;100.00
58090;BME280;45149;50.976;6.120;2022-12-24T11:23:02;100098.72;;;17.10;100.00
58090;BME280;45149;50.976;6.120;2022-12-24T11:25:27;100089.28;;;17.08;100.00
58090;BME280;45149;50.976;6.120;2022-12-24T11:27:55;100101.97;;;17.07;100.00
58090;BME280;45149;50.976;6.120;2022-12-24T11:30:26;100100.34;;;17.06;100.00
58090;BME280;45149;50.976;6.120;2022-12-24T11:35:26;100097.66;;;17.06;100.00
58090;BME280;45149;50.976;6.120;2022-12-24T11:40:30;100097.66;;;17.06;100.00
58090;BME280;45149;50.976;6.120;2022-12-24T11:42:58;100100.06;;;17.08;100.00
58090;BME280;45149;50.976;6.120;2022-12-24T11:45:28;100102.25;;;17.11;100.00
58090;BME280;45149;50.976;6.120;2022-12-24T11:47:54;100090.09;;;17.03;100.00
58090;BME280;45149;50.976;6.120;2022-12-24T11:58:17;100094.97;;;17.11;100.00
58090;BME280;45149;50.976;6.120;2022-12-24T12:00:44;100096.88;;;17.11;100.00
58090;BME280;45149;50.976;6.120;2022-12-24T12:03:18;100098.47;;;17.12;100.00
58090;BME280;45149;50.976;6.120;2022-12-24T12:05:46;100110.09;;;17.12;100.00
58090;BME280;45149;50.976;6.120;2022-12-24T12:08:15;100110.09;;;17.12;100.00
58090;BME280;45149;50.976;6.120;2022-12-24T12:10:42;100111.72;;;17.13;100.00
58090;BME280;45149;50.976;6.120;2022-12-24T12:13:12;100117.63;;;17.15;100.00
58090;BME280;45149;50.976;6.120;2022-12-24T12:15:46;100119.25;;;17.17;100.00
58090;BME280;45149;50.976;6.120;2022-12-24T12:18:22;100123.31;;;17.14;100.00
58090;BME280;45149;50.976;6.120;2022-12-24T12:20:51;100118.69;;;17.14;100.00
58090;BME280;45149;50.976;6.120;2022-12-24T12:23:19;100122.22;;;17.15;100.00
58090;BME280;45149;50.976;6.120;2022-12-24T12:28:25;100130.31;;;17.15;100.00
58090;BME280;45149;50.976;6.120;2022-12-24T12:31:02;100131.66;;;17.18;100.00
58090;BME280;45149;50.976;6.120;2022-12-24T12:35:57;100137.03;;;17.18;100.00
58090;BME280;45149;50.976;6.120;2022-12-24T12:38:24;100137.03;;;17.18;100.00
58090;BME280;45149;50.976;6.120;2022-12-24T12:40:57;100135.97;;;17.19;100.00
58090;BME280;45149;50.976;6.120;2022-12-24T12:51:49;100127.59;;;17.20;100.00
58090;BME280;45149;50.976;6.120;2022-12-24T12:56:45;100133.00;;;17.20;100.00
58090;BME280;45149;50.976;6.120;2022-12-24T13:01:49;100130.59;;;17.19;100.00
58090;BME280;45149;50.976;6.120;2022-12-24T13:07:04;100139.50;;;17.24;100.00
58090;BME280;45149;50.976;6.120;2022-12-24T13:15:01;100151.63;;;17.22;100.00
58090;BME280;45149;50.976;6.120;2022-12-24T13:17:45;100149.75;;;17.22;100.00
58090;BME280;45149;50.976;6.120;2022-12-24T13:20:16;100154.88;;;17.24;100.00
58090;BME280;45149;50.976;6.120;2022-12-24T13:25:20;100155.69;;;17.24;100.00
58090;BME280;45149;50.976;6.120;2022-12-24T13:27:46;100144.63;;;17.26;100.00
58090;BME280;45149;50.976;6.120;2022-12-24T13:30:30;100143.03;;;17.25;100.00
58090;BME280;45149;50.976;6.120;2022-12-24T13:32:55;100150.56;;;17.28;100.00
58090;BME280;45149;50.976;6.120;2022-12-24T13:37:46;100157.03;;;17.27;100.00
58090;BME280;45149;50.976;6.120;2022-12-24T13:50:49;100170.81;;;17.25;100.00
58090;BME280;45149;50.976;6.120;2022-12-24T13:53:21;100175.41;;;17.25;100.00
58090;BME280;45149;50.976;6.120;2022-12-24T13:56:34;100172.69;;;17.25;100.00
58090;BME280;45149;50.976;6.120;2022-12-24T13:58:33;100169.19;;;17.24;100.00
58090;BME280;45149;50.976;6.120;2022-12-24T14:03:29;100158.38;;;17.24;100.00
58090;BME280;45149;50.976;6.120;2022-12-24T14:06:03;100155.16;;;17.22;100.00
58090;BME280;45149;50.976;6.120;2022-12-24T14:08:34;100160.81;;;17.26;100.00
58090;BME280;45149;50.976;6.120;2022-12-24T14:11:14;100160.81;;;17.26;100.00
58090;BME280;45149;50.976;6.120;2022-12-24T14:16:15;100165.97;;;17.27;100.00
58090;BME280;45149;50.976;6.120;2022-12-24T14:18:42;100160.81;;;17.26;100.00
58090;BME280;45149;50.976;6.120;2022-12-24T14:21:45;100165.13;;;17.27;100.00
58090;BME280;45149;50.976;6.120;2022-12-24T14:24:04;100171.38;;;17.27;100.00